sensor_id;sensor_type;location;lat;lon;timestamp;P1;durP1;ratioP1;P2;durP2;ratioP2
51618;SDS011;38518;53.164;5.430;2023-05-18T00:02:01;10.23;;;4.40;;
51618;SDS011;38518;53.164;5.430;2023-05-18T00:04:29;12.38;;;4.10;;
51618;SDS011;38518;53.164;5.430;2023-05-18T00:06:56;9.50;;;4.30;;
51618;SDS011;38518;53.164;5.430;2023-05-18T00:09:25;8.40;;;3.90;;
51618;SDS011;38518;53.164;5.430;2023-05-18T00:11:52;9.60;;;4.05;;
51618;SDS011;38518;53.164;5.430;2023-05-18T00:14:18;9.02;;;3.90;;
51618;SDS011;38518;53.164;5.430;2023-05-18T00:16:44;9.65;;;4.00;;
51618;SDS011;38518;53.164;5.430;2023-05-18T00:19:10;12.80;;;4.25;;
51618;SDS011;38518;53.164;5.430;2023-05-18T00:21:39;7.75;;;3.90;;
51618;SDS011;38518;53.164;5.430;2023-05-18T00:24:10;7.68;;;4.20;;
51618;SDS011;38518;53.164;5.430;2023-05-18T00:26:37;8.35;;;4.28;;
51618;SDS011;38518;53.164;5.430;2023-05-18T00:29:04;8.75;;;4.05;;
51618;SDS011;38518;53.164;5.430;2023-05-18T00:31:30;11.40;;;4.80;;
51618;SDS011;38518;53.164;5.430;2023-05-18T00:34:03;10.05;;;4.57;;
51618;SDS011;38518;53.164;5.430;2023-05-18T00:36:33;9.35;;;4.05;;
51618;SDS011;38518;53.164;5.430;2023-05-18T00:39:00;9.77;;;4.40;;
51618;SDS011;38518;53.164;5.430;2023-05-18T00:41:26;10.43;;;4.50;;
51618;SDS011;38518;53.164;5.430;2023-05-18T00:43:53;11.00;;;4.43;;
51618;SDS011;38518;53.164;5.430;2023-05-18T00:46:20;10.90;;;4.55;;
51618;SDS011;38518;53.164;5.430;2023-05-18T00:48:46;11.00;;;4.80;;
51618;SDS011;38518;53.164;5.430;2023-05-18T00:51:13;8.02;;;4.45;;
51618;SDS011;38518;53.164;5.430;2023-05-18T00:53:39;9.07;;;4.53;;
51618;SDS011;38518;53.164;5.430;2023-05-18T00:56:06;13.68;;;5.07;;
51618;SDS011;38518;53.164;5.430;2023-05-18T00:58:33;12.98;;;4.32;;
51618;SDS011;38518;53.164;5.430;2023-05-18T01:00:59;8.35;;;4.25;;
51618;SDS011;38518;53.164;5.430;2023-05-18T01:03:27;7.47;;;4.20;;
51618;SDS011;38518;53.164;5.430;2023-05-18T01:05:54;9.57;;;4.45;;
51618;SDS011;38518;53.164;5.430;2023-05-18T01:08:22;7.38;;;4.22;;
51618;SDS011;38518;53.164;5.430;2023-05-18T01:10:53;10.10;;;4.57;;
51618;SDS011;38518;53.164;5.430;2023-05-18T01:13:29;11.98;;;4.57;;
51618;SDS011;38518;53.164;5.430;2023-05-18T01:16:03;8.02;;;4.25;;
51618;SDS011;38518;53.164;5.430;2023-05-18T01:18:35;9.23;;;4.50;;
51618;SDS011;38518;53.164;5.430;2023-05-18T01:21:14;11.60;;;4.53;;
51618;SDS011;38518;53.164;5.430;2023-05-18T01:26:35;8.23;;;4.38;;
51618;SDS011;38518;53.164;5.430;2023-05-18T01:29:05;10.00;;;4.75;;
51618;SDS011;38518;53.164;5.430;2023-05-18T01:31:35;9.85;;;4.97;;
51618;SDS011;38518;53.164;5.430;2023-05-18T01:34:01;9.57;;;4.22;;
51618;SDS011;38518;53.164;5.430;2023-05-18T01:36:27;10.38;;;5.35;;
51618;SDS011;38518;53.164;5.430;2023-05-18T01:38:53;10.55;;;4.68;;
51618;SDS011;38518;53.164;5.430;2023-05-18T01:41:24;11.00;;;4.78;;
51618;SDS011;38518;53.164;5.430;2023-05-18T01:43:52;8.35;;;4.55;;
51618;SDS011;38518;53.164;5.430;2023-05-18T01:47:18;10.20;;;5.15;;
51618;SDS011;38518;53.164;5.430;2023-05-18T01:51:50;14.18;;;5.43;;
51618;SDS011;38518;53.164;5.430;2023-05-18T01:54:18;10.85;;;4.90;;
51618;SDS011;38518;53.164;5.430;2023-05-18T01:56:46;13.02;;;5.50;;
51618;SDS011;38518;53.164;5.430;2023-05-18T01:59:13;9.65;;;4.85;;
51618;SDS011;38518;53.164;5.430;2023-05-18T02:01:40;13.02;;;5.82;;
51618;SDS011;38518;53.164;5.430;2023-05-18T02:04:09;11.20;;;4.97;;
51618;SDS011;38518;53.164;5.430;2023-05-18T02:06:35;12.20;;;5.63;;
51618;SDS011;38518;53.164;5.430;2023-05-18T02:09:03;8.80;;;5.50;;
51618;SDS011;38518;53.164;5.430;2023-05-18T02:11:29;9.07;;;5.50;;
51618;SDS011;38518;53.164;5.430;2023-05-18T02:13:56;12.18;;;5.63;;
51618;SDS011;38518;53.164;5.430;2023-05-18T02:16:21;11.88;;;5.80;;
51618;SDS011;38518;53.164;5.430;2023-05-18T02:18:47;8.70;;;5.40;;
51618;SDS011;38518;53.164;5.430;2023-05-18T02:21:13;12.90;;;6.53;;
51618;SDS011;38518;53.164;5.430;2023-05-18T02:23:40;9.27;;;5.57;;
51618;SDS011;38518;53.164;5.430;2023-05-18T02:26:05;9.98;;;5.45;;
51618;SDS011;38518;53.164;5.430;2023-05-18T02:28:31;10.82;;;6.25;;
51618;SDS011;38518;53.164;5.430;2023-05-18T02:31:04;8.25;;;5.93;;
51618;SDS011;38518;53.164;5.430;2023-05-18T02:33:31;11.07;;;5.88;;
51618;SDS011;38518;53.164;5.430;2023-05-18T02:36:00;13.18;;;6.18;;
51618;SDS011;38518;53.164;5.430;2023-05-18T02:38:27;10.43;;;5.88;;
51618;SDS011;38518;53.164;5.430;2023-05-18T02:40:53;8.02;;;4.70;;
51618;SDS011;38518;53.164;5.430;2023-05-18T02:43:18;13.63;;;5.80;;
51618;SDS011;38518;53.164;5.430;2023-05-18T02:45:44;7.95;;;5.38;;
51618;SDS011;38518;53.164;5.430;2023-05-18T02:48:10;10.88;;;6.00;;
51618;SDS011;38518;53.164;5.430;2023-05-18T02:50:35;12.02;;;6.15;;
51618;SDS011;38518;53.164;5.430;2023-05-18T02:53:01;9.40;;;5.85;;
51618;SDS011;38518;53.164;5.430;2023-05-18T02:55:27;14.68;;;6.28;;
51618;SDS011;38518;53.164;5.430;2023-05-18T02:57:52;12.27;;;5.53;;
51618;SDS011;38518;53.164;5.430;2023-05-18T03:00:21;11.10;;;6.07;;
51618;SDS011;38518;53.164;5.430;2023-05-18T03:02:48;8.68;;;6.05;;
51618;SDS011;38518;53.164;5.430;2023-05-18T03:05:14;9.93;;;6.60;;
51618;SDS011;38518;53.164;5.430;2023-05-18T03:07:47;12.43;;;6.10;;
51618;SDS011;38518;53.164;5.430;2023-05-18T03:10:15;10.70;;;6.22;;
51618;SDS011;38518;53.164;5.430;2023-05-18T03:12:41;11.18;;;5.63;;
51618;SDS011;38518;53.164;5.430;2023-05-18T03:15:07;13.52;;;5.57;;
51618;SDS011;38518;53.164;5.430;2023-05-18T03:17:33;10.98;;;6.03;;
51618;SDS011;38518;53.164;5.430;2023-05-18T03:19:59;11.80;;;6.18;;
51618;SDS011;38518;53.164;5.430;2023-05-18T03:22:25;10.73;;;5.40;;
51618;SDS011;38518;53.164;5.430;2023-05-18T03:24:50;11.65;;;5.75;;
51618;SDS011;38518;53.164;5.430;2023-05-18T03:27:19;9.98;;;5.40;;
51618;SDS011;38518;53.164;5.430;2023-05-18T03:29:49;11.02;;;5.85;;
51618;SDS011;38518;53.164;5.430;2023-05-18T03:32:17;9.07;;;5.15;;
51618;SDS011;38518;53.164;5.430;2023-05-18T03:34:43;10.15;;;5.25;;
51618;SDS011;38518;53.164;5.430;2023-05-18T03:37:11;9.75;;;4.70;;
51618;SDS011;38518;53.164;5.430;2023-05-18T03:39:37;11.35;;;5.18;;
51618;SDS011;38518;53.164;5.430;2023-05-18T03:42:03;12.35;;;5.15;;
51618;SDS011;38518;53.164;5.430;2023-05-18T03:44:29;10.43;;;5.30;;
51618;SDS011;38518;53.164;5.430;2023-05-18T03:46:55;14.27;;;4.78;;
51618;SDS011;38518;53.164;5.430;2023-05-18T03:49:21;9.73;;;4.72;;
51618;SDS011;38518;53.164;5.430;2023-05-18T03:51:47;10.80;;;5.28;;
51618;SDS011;38518;53.164;5.430;2023-05-18T03:54:12;12.85;;;5.18;;
51618;SDS011;38518;53.164;5.430;2023-05-18T03:56:38;8.15;;;3.75;;
51618;SDS011;38518;53.164;5.430;2023-05-18T03:59:04;7.97;;;4.93;;
51618;SDS011;38518;53.164;5.430;2023-05-18T04:01:30;12.95;;;5.35;;
51618;SDS011;38518;53.164;5.430;2023-05-18T04:03:58;11.35;;;5.43;;
51618;SDS011;38518;53.164;5.430;2023-05-18T04:06:24;10.65;;;5.88;;
51618;SDS011;38518;53.164;5.430;2023-05-18T04:08:51;10.20;;;4.88;;
51618;SDS011;38518;53.164;5.430;2023-05-18T04:11:17;12.45;;;5.18;;
51618;SDS011;38518;53.164;5.430;2023-05-18T04:13:43;14.63;;;5.38;;
51618;SDS011;38518;53.164;5.430;2023-05-18T04:16:08;8.35;;;4.28;;
51618;SDS011;38518;53.164;5.430;2023-05-18T04:18:38;10.50;;;5.03;;
51618;SDS011;38518;53.164;5.430;2023-05-18T04:21:04;10.45;;;5.03;;
51618;SDS011;38518;53.164;5.430;2023-05-18T04:23:30;9.85;;;4.82;;
51618;SDS011;38518;53.164;5.430;2023-05-18T04:26:03;11.02;;;4.53;;
51618;SDS011;38518;53.164;5.430;2023-05-18T04:28:30;10.50;;;4.70;;
51618;SDS011;38518;53.164;5.430;2023-05-18T04:30:56;10.98;;;5.28;;
51618;SDS011;38518;53.164;5.430;2023-05-18T04:33:22;11.68;;;5.28;;
51618;SDS011;38518;53.164;5.430;2023-05-18T04:35:50;8.25;;;4.70;;
51618;SDS011;38518;53.164;5.430;2023-05-18T04:38:19;11.02;;;4.80;;
51618;SDS011;38518;53.164;5.430;2023-05-18T04:40:50;10.60;;;4.70;;
51618;SDS011;38518;53.164;5.430;2023-05-18T04:43:16;11.40;;;4.88;;
51618;SDS011;38518;53.164;5.430;2023-05-18T04:45:42;10.18;;;4.30;;
51618;SDS011;38518;53.164;5.430;2023-05-18T04:48:14;12.27;;;5.00;;
51618;SDS011;38518;53.164;5.430;2023-05-18T04:50:42;10.80;;;4.60;;
51618;SDS011;38518;53.164;5.430;2023-05-18T04:53:07;9.73;;;4.43;;
51618;SDS011;38518;53.164;5.430;2023-05-18T04:55:36;9.70;;;4.30;;
51618;SDS011;38518;53.164;5.430;2023-05-18T04:58:02;11.95;;;4.47;;
51618;SDS011;38518;53.164;5.430;2023-05-18T05:00:29;11.00;;;4.00;;
51618;SDS011;38518;53.164;5.430;2023-05-18T05:02:56;9.55;;;3.63;;
51618;SDS011;38518;53.164;5.430;2023-05-18T05:05:22;6.70;;;3.60;;
51618;SDS011;38518;53.164;5.430;2023-05-18T05:07:50;7.55;;;3.20;;
51618;SDS011;38518;53.164;5.430;2023-05-18T05:10:17;7.90;;;3.28;;
51618;SDS011;38518;53.164;5.430;2023-05-18T05:12:43;8.20;;;3.25;;
51618;SDS011;38518;53.164;5.430;2023-05-18T05:15:10;8.48;;;3.35;;
51618;SDS011;38518;53.164;5.430;2023-05-18T05:17:35;7.93;;;3.15;;
51618;SDS011;38518;53.164;5.430;2023-05-18T05:20:02;10.50;;;4.03;;
51618;SDS011;38518;53.164;5.430;2023-05-18T05:22:28;8.32;;;3.60;;
51618;SDS011;38518;53.164;5.430;2023-05-18T05:24:53;7.97;;;3.38;;
51618;SDS011;38518;53.164;5.430;2023-05-18T05:27:19;10.20;;;3.90;;
51618;SDS011;38518;53.164;5.430;2023-05-18T05:29:46;8.13;;;3.35;;
51618;SDS011;38518;53.164;5.430;2023-05-18T05:32:14;12.38;;;3.90;;
51618;SDS011;38518;53.164;5.430;2023-05-18T05:34:40;11.10;;;3.70;;
51618;SDS011;38518;53.164;5.430;2023-05-18T05:37:09;7.88;;;3.60;;
51618;SDS011;38518;53.164;5.430;2023-05-18T05:39:35;8.52;;;3.50;;
51618;SDS011;38518;53.164;5.430;2023-05-18T05:42:01;8.77;;;3.65;;
51618;SDS011;38518;53.164;5.430;2023-05-18T05:44:27;11.25;;;3.92;;
51618;SDS011;38518;53.164;5.430;2023-05-18T05:46:52;9.40;;;3.55;;
51618;SDS011;38518;53.164;5.430;2023-05-18T05:49:18;10.80;;;3.40;;
51618;SDS011;38518;53.164;5.430;2023-05-18T05:51:44;8.68;;;3.90;;
51618;SDS011;38518;53.164;5.430;2023-05-18T05:54:09;13.07;;;3.85;;
51618;SDS011;38518;53.164;5.430;2023-05-18T05:56:35;8.38;;;3.67;;
51618;SDS011;38518;53.164;5.430;2023-05-18T05:59:01;10.80;;;3.40;;
51618;SDS011;38518;53.164;5.430;2023-05-18T06:01:26;7.60;;;3.30;;
51618;SDS011;38518;53.164;5.430;2023-05-18T06:03:53;8.38;;;3.22;;
51618;SDS011;38518;53.164;5.430;2023-05-18T06:06:19;7.32;;;2.70;;
51618;SDS011;38518;53.164;5.430;2023-05-18T06:08:45;8.38;;;3.30;;
51618;SDS011;38518;53.164;5.430;2023-05-18T06:11:11;7.22;;;2.92;;
51618;SDS011;38518;53.164;5.430;2023-05-18T06:13:37;9.60;;;3.30;;
51618;SDS011;38518;53.164;5.430;2023-05-18T06:16:02;7.65;;;3.25;;
51618;SDS011;38518;53.164;5.430;2023-05-18T06:18:28;8.30;;;3.28;;
51618;SDS011;38518;53.164;5.430;2023-05-18T06:20:54;6.07;;;2.90;;
51618;SDS011;38518;53.164;5.430;2023-05-18T06:23:20;8.18;;;3.15;;
51618;SDS011;38518;53.164;5.430;2023-05-18T06:25:48;6.55;;;2.88;;
51618;SDS011;38518;53.164;5.430;2023-05-18T06:28:14;8.43;;;2.75;;
51618;SDS011;38518;53.164;5.430;2023-05-18T06:30:40;6.20;;;3.20;;
51618;SDS011;38518;53.164;5.430;2023-05-18T06:33:06;8.65;;;3.53;;
51618;SDS011;38518;53.164;5.430;2023-05-18T06:35:32;8.60;;;3.58;;
51618;SDS011;38518;53.164;5.430;2023-05-18T06:37:58;8.30;;;3.15;;
51618;SDS011;38518;53.164;5.430;2023-05-18T06:40:24;7.38;;;2.92;;
51618;SDS011;38518;53.164;5.430;2023-05-18T06:42:50;9.85;;;3.33;;
51618;SDS011;38518;53.164;5.430;2023-05-18T06:45:16;12.75;;;4.05;;
51618;SDS011;38518;53.164;5.430;2023-05-18T06:47:44;8.10;;;3.55;;
51618;SDS011;38518;53.164;5.430;2023-05-18T06:50:10;8.88;;;3.38;;
51618;SDS011;38518;53.164;5.430;2023-05-18T06:52:36;7.82;;;2.90;;
51618;SDS011;38518;53.164;5.430;2023-05-18T06:55:02;7.18;;;3.25;;
51618;SDS011;38518;53.164;5.430;2023-05-18T06:57:29;8.25;;;3.15;;
51618;SDS011;38518;53.164;5.430;2023-05-18T06:59:56;7.97;;;3.00;;
51618;SDS011;38518;53.164;5.430;2023-05-18T07:02:22;6.78;;;3.38;;
51618;SDS011;38518;53.164;5.430;2023-05-18T07:04:48;6.47;;;3.03;;
51618;SDS011;38518;53.164;5.430;2023-05-18T07:07:14;5.82;;;3.03;;
51618;SDS011;38518;53.164;5.430;2023-05-18T07:09:43;6.28;;;3.05;;
51618;SDS011;38518;53.164;5.430;2023-05-18T07:12:12;9.15;;;3.20;;
51618;SDS011;38518;53.164;5.430;2023-05-18T07:14:37;8.25;;;2.88;;
51618;SDS011;38518;53.164;5.430;2023-05-18T07:17:03;5.65;;;2.80;;
51618;SDS011;38518;53.164;5.430;2023-05-18T07:19:31;6.75;;;3.03;;
51618;SDS011;38518;53.164;5.430;2023-05-18T07:21:58;8.07;;;2.92;;
51618;SDS011;38518;53.164;5.430;2023-05-18T07:24:24;6.65;;;2.92;;
51618;SDS011;38518;53.164;5.430;2023-05-18T07:26:49;8.10;;;2.78;;
51618;SDS011;38518;53.164;5.430;2023-05-18T07:29:15;8.88;;;3.25;;
51618;SDS011;38518;53.164;5.430;2023-05-18T07:31:41;7.40;;;2.92;;
51618;SDS011;38518;53.164;5.430;2023-05-18T07:34:07;8.60;;;3.10;;
51618;SDS011;38518;53.164;5.430;2023-05-18T07:36:33;5.63;;;3.17;;
51618;SDS011;38518;53.164;5.430;2023-05-18T07:38:59;5.53;;;3.00;;
51618;SDS011;38518;53.164;5.430;2023-05-18T07:41:25;6.70;;;2.90;;
51618;SDS011;38518;53.164;5.430;2023-05-18T07:43:52;9.05;;;3.03;;
51618;SDS011;38518;53.164;5.430;2023-05-18T07:46:18;7.22;;;2.97;;
51618;SDS011;38518;53.164;5.430;2023-05-18T07:48:44;6.47;;;2.65;;
51618;SDS011;38518;53.164;5.430;2023-05-18T07:51:10;7.68;;;3.35;;
51618;SDS011;38518;53.164;5.430;2023-05-18T07:53:36;8.50;;;3.03;;
51618;SDS011;38518;53.164;5.430;2023-05-18T07:56:02;7.40;;;2.80;;
51618;SDS011;38518;53.164;5.430;2023-05-18T07:58:29;7.43;;;3.35;;
51618;SDS011;38518;53.164;5.430;2023-05-18T08:00:55;6.15;;;3.17;;
51618;SDS011;38518;53.164;5.430;2023-05-18T08:03:21;5.68;;;3.13;;
51618;SDS011;38518;53.164;5.430;2023-05-18T08:05:47;6.78;;;2.95;;
51618;SDS011;38518;53.164;5.430;2023-05-18T08:08:12;9.80;;;3.42;;
51618;SDS011;38518;53.164;5.430;2023-05-18T08:10:41;9.50;;;3.13;;
51618;SDS011;38518;53.164;5.430;2023-05-18T08:13:06;8.32;;;2.83;;
51618;SDS011;38518;53.164;5.430;2023-05-18T08:15:33;6.70;;;2.70;;
51618;SDS011;38518;53.164;5.430;2023-05-18T08:18:00;10.65;;;3.28;;
51618;SDS011;38518;53.164;5.430;2023-05-18T08:20:25;7.35;;;2.75;;
51618;SDS011;38518;53.164;5.430;2023-05-18T08:22:54;12.27;;;2.88;;
51618;SDS011;38518;53.164;5.430;2023-05-18T08:25:21;10.25;;;2.88;;
51618;SDS011;38518;53.164;5.430;2023-05-18T08:27:47;6.75;;;2.90;;
51618;SDS011;38518;53.164;5.430;2023-05-18T08:30:14;8.65;;;2.65;;
51618;SDS011;38518;53.164;5.430;2023-05-18T08:32:40;7.18;;;2.88;;
51618;SDS011;38518;53.164;5.430;2023-05-18T08:35:06;8.23;;;2.70;;
51618;SDS011;38518;53.164;5.430;2023-05-18T08:37:34;9.20;;;3.00;;
51618;SDS011;38518;53.164;5.430;2023-05-18T08:40:02;9.88;;;3.17;;
51618;SDS011;38518;53.164;5.430;2023-05-18T08:42:50;6.35;;;2.58;;
51618;SDS011;38518;53.164;5.430;2023-05-18T08:47:59;5.07;;;2.28;;
51618;SDS011;38518;53.164;5.430;2023-05-18T08:50:26;4.95;;;2.63;;
51618;SDS011;38518;53.164;5.430;2023-05-18T08:52:56;9.52;;;2.92;;
51618;SDS011;38518;53.164;5.430;2023-05-18T08:55:25;9.65;;;2.70;;
51618;SDS011;38518;53.164;5.430;2023-05-18T08:57:54;9.52;;;2.80;;
51618;SDS011;38518;53.164;5.430;2023-05-18T09:00:24;8.20;;;2.53;;
51618;SDS011;38518;53.164;5.430;2023-05-18T09:02:50;8.13;;;2.60;;
51618;SDS011;38518;53.164;5.430;2023-05-18T09:05:16;6.68;;;2.53;;
51618;SDS011;38518;53.164;5.430;2023-05-18T09:07:42;7.82;;;2.63;;
51618;SDS011;38518;53.164;5.430;2023-05-18T09:10:10;7.72;;;2.80;;
51618;SDS011;38518;53.164;5.430;2023-05-18T09:12:38;7.07;;;2.78;;
51618;SDS011;38518;53.164;5.430;2023-05-18T09:15:06;10.80;;;2.90;;
51618;SDS011;38518;53.164;5.430;2023-05-18T09:17:34;6.18;;;2.53;;
51618;SDS011;38518;53.164;5.430;2023-05-18T09:20:00;5.85;;;2.65;;
51618;SDS011;38518;53.164;5.430;2023-05-18T09:22:29;7.38;;;2.72;;
51618;SDS011;38518;53.164;5.430;2023-05-18T09:24:55;8.40;;;2.83;;
51618;SDS011;38518;53.164;5.430;2023-05-18T09:27:22;7.03;;;2.60;;
51618;SDS011;38518;53.164;5.430;2023-05-18T09:29:52;8.07;;;2.75;;
51618;SDS011;38518;53.164;5.430;2023-05-18T09:32:23;5.60;;;2.70;;
51618;SDS011;38518;53.164;5.430;2023-05-18T09:34:49;9.45;;;3.20;;
51618;SDS011;38518;53.164;5.430;2023-05-18T09:37:20;7.47;;;2.85;;
51618;SDS011;38518;53.164;5.430;2023-05-18T09:39:59;5.65;;;2.78;;
51618;SDS011;38518;53.164;5.430;2023-05-18T09:42:35;5.78;;;2.50;;
51618;SDS011;38518;53.164;5.430;2023-05-18T09:45:03;5.72;;;2.88;;
51618;SDS011;38518;53.164;5.430;2023-05-18T09:47:39;7.07;;;2.58;;
51618;SDS011;38518;53.164;5.430;2023-05-18T09:50:05;7.80;;;2.85;;
51618;SDS011;38518;53.164;5.430;2023-05-18T09:52:38;6.15;;;2.80;;
51618;SDS011;38518;53.164;5.430;2023-05-18T09:55:06;5.55;;;2.40;;
51618;SDS011;38518;53.164;5.430;2023-05-18T09:57:36;5.43;;;2.75;;
51618;SDS011;38518;53.164;5.430;2023-05-18T10:00:06;6.40;;;2.47;;
51618;SDS011;38518;53.164;5.430;2023-05-18T10:02:41;5.63;;;2.65;;
51618;SDS011;38518;53.164;5.430;2023-05-18T10:05:25;6.63;;;2.83;;
51618;SDS011;38518;53.164;5.430;2023-05-18T10:07:56;8.23;;;2.58;;
51618;SDS011;38518;53.164;5.430;2023-05-18T10:10:24;7.18;;;2.50;;
51618;SDS011;38518;53.164;5.430;2023-05-18T10:12:53;8.23;;;3.15;;
51618;SDS011;38518;53.164;5.430;2023-05-18T10:15:20;7.15;;;2.65;;
51618;SDS011;38518;53.164;5.430;2023-05-18T10:17:48;8.55;;;2.90;;
51618;SDS011;38518;53.164;5.430;2023-05-18T10:20:18;5.65;;;2.67;;
51618;SDS011;38518;53.164;5.430;2023-05-18T10:22:48;6.90;;;2.83;;
51618;SDS011;38518;53.164;5.430;2023-05-18T10:25:17;4.75;;;2.53;;
51618;SDS011;38518;53.164;5.430;2023-05-18T10:27:44;7.32;;;2.63;;
51618;SDS011;38518;53.164;5.430;2023-05-18T10:30:12;4.85;;;2.30;;
51618;SDS011;38518;53.164;5.430;2023-05-18T10:32:40;6.30;;;2.70;;
51618;SDS011;38518;53.164;5.430;2023-05-18T10:35:07;5.15;;;2.58;;
51618;SDS011;38518;53.164;5.430;2023-05-18T10:37:35;5.03;;;2.80;;
51618;SDS011;38518;53.164;5.430;2023-05-18T10:40:03;6.57;;;2.80;;
51618;SDS011;38518;53.164;5.430;2023-05-18T10:42:31;7.75;;;2.63;;
51618;SDS011;38518;53.164;5.430;2023-05-18T10:44:59;8.45;;;2.55;;
51618;SDS011;38518;53.164;5.430;2023-05-18T10:47:28;4.43;;;2.65;;
51618;SDS011;38518;53.164;5.430;2023-05-18T10:49:57;7.00;;;2.75;;
51618;SDS011;38518;53.164;5.430;2023-05-18T10:52:24;6.97;;;2.85;;
51618;SDS011;38518;53.164;5.430;2023-05-18T10:54:57;6.78;;;3.38;;
51618;SDS011;38518;53.164;5.430;2023-05-18T10:57:25;5.47;;;2.53;;
51618;SDS011;38518;53.164;5.430;2023-05-18T10:59:58;6.13;;;2.50;;
51618;SDS011;38518;53.164;5.430;2023-05-18T11:02:25;5.53;;;2.85;;
51618;SDS011;38518;53.164;5.430;2023-05-18T11:04:54;5.38;;;2.70;;
51618;SDS011;38518;53.164;5.430;2023-05-18T11:07:21;6.75;;;2.80;;
51618;SDS011;38518;53.164;5.430;2023-05-18T11:09:48;6.70;;;2.90;;
51618;SDS011;38518;53.164;5.430;2023-05-18T11:12:17;6.80;;;3.00;;
51618;SDS011;38518;53.164;5.430;2023-05-18T11:14:50;8.18;;;2.70;;
51618;SDS011;38518;53.164;5.430;2023-05-18T11:17:18;5.50;;;3.15;;
51618;SDS011;38518;53.164;5.430;2023-05-18T11:20:33;6.68;;;2.88;;
51618;SDS011;38518;53.164;5.430;2023-05-18T11:27:54;7.07;;;2.80;;
51618;SDS011;38518;53.164;5.430;2023-05-18T11:30:28;6.38;;;2.88;;
51618;SDS011;38518;53.164;5.430;2023-05-18T11:36:01;6.80;;;3.08;;
51618;SDS011;38518;53.164;5.430;2023-05-18T11:41:33;6.45;;;3.10;;
51618;SDS011;38518;53.164;5.430;2023-05-18T11:46:34;5.20;;;3.10;;
51618;SDS011;38518;53.164;5.430;2023-05-18T11:49:07;6.88;;;3.42;;
51618;SDS011;38518;53.164;5.430;2023-05-18T11:51:33;10.75;;;3.35;;
51618;SDS011;38518;53.164;5.430;2023-05-18T11:54:18;6.97;;;3.20;;
51618;SDS011;38518;53.164;5.430;2023-05-18T11:56:44;8.15;;;2.88;;
51618;SDS011;38518;53.164;5.430;2023-05-18T11:59:15;7.30;;;3.53;;
51618;SDS011;38518;53.164;5.430;2023-05-18T12:01:41;6.53;;;3.00;;
51618;SDS011;38518;53.164;5.430;2023-05-18T12:04:07;6.97;;;3.30;;
51618;SDS011;38518;53.164;5.430;2023-05-18T12:06:34;7.03;;;3.53;;
51618;SDS011;38518;53.164;5.430;2023-05-18T12:09:01;6.38;;;3.33;;
51618;SDS011;38518;53.164;5.430;2023-05-18T12:11:28;7.35;;;3.20;;
51618;SDS011;38518;53.164;5.430;2023-05-18T12:13:55;5.75;;;3.30;;
51618;SDS011;38518;53.164;5.430;2023-05-18T12:16:21;4.80;;;2.90;;
51618;SDS011;38518;53.164;5.430;2023-05-18T12:18:49;6.28;;;2.85;;
51618;SDS011;38518;53.164;5.430;2023-05-18T12:21:22;7.45;;;3.45;;
51618;SDS011;38518;53.164;5.430;2023-05-18T12:23:56;5.93;;;3.08;;
51618;SDS011;38518;53.164;5.430;2023-05-18T12:26:23;10.20;;;3.17;;
51618;SDS011;38518;53.164;5.430;2023-05-18T12:28:56;7.53;;;2.97;;
51618;SDS011;38518;53.164;5.430;2023-05-18T12:31:26;6.57;;;3.13;;
51618;SDS011;38518;53.164;5.430;2023-05-18T12:33:55;6.22;;;3.15;;
51618;SDS011;38518;53.164;5.430;2023-05-18T12:36:21;6.05;;;2.80;;
51618;SDS011;38518;53.164;5.430;2023-05-18T12:38:47;5.97;;;3.20;;
51618;SDS011;38518;53.164;5.430;2023-05-18T12:41:22;6.38;;;3.20;;
51618;SDS011;38518;53.164;5.430;2023-05-18T12:43:49;5.30;;;2.92;;
51618;SDS011;38518;53.164;5.430;2023-05-18T12:46:16;5.75;;;2.90;;
51618;SDS011;38518;53.164;5.430;2023-05-18T12:48:45;4.88;;;2.83;;
51618;SDS011;38518;53.164;5.430;2023-05-18T12:51:17;6.43;;;3.50;;
51618;SDS011;38518;53.164;5.430;2023-05-18T12:53:44;8.65;;;3.00;;
51618;SDS011;38518;53.164;5.430;2023-05-18T12:56:10;7.00;;;2.97;;
51618;SDS011;38518;53.164;5.430;2023-05-18T12:58:37;6.00;;;2.58;;
51618;SDS011;38518;53.164;5.430;2023-05-18T13:01:10;5.47;;;2.38;;
51618;SDS011;38518;53.164;5.430;2023-05-18T13:03:39;7.88;;;3.08;;
51618;SDS011;38518;53.164;5.430;2023-05-18T13:06:06;6.90;;;3.03;;
51618;SDS011;38518;53.164;5.430;2023-05-18T13:08:33;8.15;;;3.28;;
51618;SDS011;38518;53.164;5.430;2023-05-18T13:11:03;9.80;;;3.28;;
51618;SDS011;38518;53.164;5.430;2023-05-18T13:13:32;6.00;;;3.17;;
51618;SDS011;38518;53.164;5.430;2023-05-18T13:15:58;9.80;;;3.05;;
51618;SDS011;38518;53.164;5.430;2023-05-18T13:18:24;6.10;;;2.90;;
51618;SDS011;38518;53.164;5.430;2023-05-18T13:20:52;5.60;;;2.58;;
51618;SDS011;38518;53.164;5.430;2023-05-18T13:23:21;7.30;;;3.00;;
51618;SDS011;38518;53.164;5.430;2023-05-18T13:25:49;6.55;;;3.00;;
51618;SDS011;38518;53.164;5.430;2023-05-18T13:28:16;9.65;;;3.35;;
51618;SDS011;38518;53.164;5.430;2023-05-18T13:30:44;6.90;;;2.85;;
51618;SDS011;38518;53.164;5.430;2023-05-18T13:33:12;8.65;;;3.22;;
51618;SDS011;38518;53.164;5.430;2023-05-18T13:35:38;10.18;;;3.40;;
51618;SDS011;38518;53.164;5.430;2023-05-18T13:38:06;6.50;;;3.20;;
51618;SDS011;38518;53.164;5.430;2023-05-18T13:40:36;9.90;;;3.17;;
51618;SDS011;38518;53.164;5.430;2023-05-18T13:43:02;6.15;;;3.17;;
51618;SDS011;38518;53.164;5.430;2023-05-18T13:45:30;8.38;;;3.20;;
51618;SDS011;38518;53.164;5.430;2023-05-18T13:47:56;11.15;;;3.03;;
51618;SDS011;38518;53.164;5.430;2023-05-18T13:50:23;6.30;;;2.83;;
51618;SDS011;38518;53.164;5.430;2023-05-18T13:52:50;7.65;;;3.78;;
51618;SDS011;38518;53.164;5.430;2023-05-18T13:55:16;9.65;;;3.22;;
51618;SDS011;38518;53.164;5.430;2023-05-18T13:57:46;8.80;;;3.28;;
51618;SDS011;38518;53.164;5.430;2023-05-18T14:00:12;10.57;;;3.83;;
51618;SDS011;38518;53.164;5.430;2023-05-18T14:02:45;7.90;;;3.55;;
51618;SDS011;38518;53.164;5.430;2023-05-18T14:05:11;6.25;;;3.30;;
51618;SDS011;38518;53.164;5.430;2023-05-18T14:07:38;9.25;;;3.20;;
51618;SDS011;38518;53.164;5.430;2023-05-18T14:10:05;6.07;;;3.20;;
51618;SDS011;38518;53.164;5.430;2023-05-18T14:12:32;8.15;;;3.92;;
51618;SDS011;38518;53.164;5.430;2023-05-18T14:14:59;8.82;;;3.45;;
51618;SDS011;38518;53.164;5.430;2023-05-18T14:17:25;9.35;;;3.80;;
51618;SDS011;38518;53.164;5.430;2023-05-18T14:19:54;7.80;;;3.50;;
51618;SDS011;38518;53.164;5.430;2023-05-18T14:22:23;6.78;;;3.42;;
51618;SDS011;38518;53.164;5.430;2023-05-18T14:24:50;7.18;;;3.50;;
51618;SDS011;38518;53.164;5.430;2023-05-18T14:27:16;8.07;;;3.08;;
51618;SDS011;38518;53.164;5.430;2023-05-18T14:29:44;8.50;;;3.30;;
51618;SDS011;38518;53.164;5.430;2023-05-18T14:32:10;9.40;;;3.92;;
51618;SDS011;38518;53.164;5.430;2023-05-18T14:34:36;8.80;;;3.33;;
51618;SDS011;38518;53.164;5.430;2023-05-18T14:37:02;10.35;;;4.20;;
51618;SDS011;38518;53.164;5.430;2023-05-18T14:39:27;7.35;;;3.40;;
51618;SDS011;38518;53.164;5.430;2023-05-18T14:41:53;6.78;;;3.47;;
51618;SDS011;38518;53.164;5.430;2023-05-18T14:44:19;10.45;;;3.55;;
51618;SDS011;38518;53.164;5.430;2023-05-18T14:46:45;8.75;;;3.33;;
51618;SDS011;38518;53.164;5.430;2023-05-18T14:49:10;8.90;;;3.03;;
51618;SDS011;38518;53.164;5.430;2023-05-18T14:51:36;7.90;;;3.03;;
51618;SDS011;38518;53.164;5.430;2023-05-18T14:54:03;8.23;;;3.00;;
51618;SDS011;38518;53.164;5.430;2023-05-18T14:56:29;7.43;;;3.50;;
51618;SDS011;38518;53.164;5.430;2023-05-18T14:58:55;8.40;;;3.10;;
51618;SDS011;38518;53.164;5.430;2023-05-18T15:01:21;7.60;;;3.13;;
51618;SDS011;38518;53.164;5.430;2023-05-18T15:03:47;9.85;;;3.40;;
51618;SDS011;38518;53.164;5.430;2023-05-18T15:06:12;11.57;;;3.30;;
51618;SDS011;38518;53.164;5.430;2023-05-18T15:08:38;8.25;;;3.20;;